sensor_id;sensor_type;location;lat;lon;timestamp;temperature;humidity
1830;DHT22;914;48.118;11.600;2023-05-10T00:00:08;16.20;99.90
1830;DHT22;914;48.118;11.600;2023-05-10T00:02:34;16.20;99.90
1830;DHT22;914;48.118;11.600;2023-05-10T00:05:00;16.30;99.90
1830;DHT22;914;48.118;11.600;2023-05-10T00:07:26;16.30;99.90
1830;DHT22;914;48.118;11.600;2023-05-10T00:09:52;16.30;99.90
1830;DHT22;914;48.118;11.600;2023-05-10T00:12:17;16.30;99.90
1830;DHT22;914;48.118;11.600;2023-05-10T00:14:43;16.40;99.90
1830;DHT22;914;48.118;11.600;2023-05-10T00:17:09;16.40;99.90
1830;DHT22;914;48.118;11.600;2023-05-10T00:19:34;16.40;99.90
1830;DHT22;914;48.118;11.600;2023-05-10T00:22:00;16.30;99.90
1830;DHT22;914;48.118;11.600;2023-05-10T00:24:25;16.30;99.90
1830;DHT22;914;48.118;11.600;2023-05-10T00:26:51;16.30;99.90
1830;DHT22;914;48.118;11.600;2023-05-10T00:29:17;16.20;99.90
1830;DHT22;914;48.118;11.600;2023-05-10T00:31:42;16.30;99.90
1830;DHT22;914;48.118;11.600;2023-05-10T00:34:08;16.20;99.90
1830;DHT22;914;48.118;11.600;2023-05-10T00:36:33;16.10;99.90
1830;DHT22;914;48.118;11.600;2023-05-10T00:38:59;16.40;99.90
1830;DHT22;914;48.118;11.600;2023-05-10T00:41:25;16.50;99.90
1830;DHT22;914;48.118;11.600;2023-05-10T00:43:50;16.40;99.90
1830;DHT22;914;48.118;11.600;2023-05-10T00:46:16;16.40;99.90
1830;DHT22;914;48.118;11.600;2023-05-10T00:48:43;16.40;99.90
1830;DHT22;914;48.118;11.600;2023-05-10T00:51:09;16.40;99.90
1830;DHT22;914;48.118;11.600;2023-05-10T00:53:35;16.30;99.90
1830;DHT22;914;48.118;11.600;2023-05-10T00:56:01;16.30;99.90
1830;DHT22;914;48.118;11.600;2023-05-10T00:58:28;16.20;99.90
1830;DHT22;914;48.118;11.600;2023-05-10T01:00:56;16.20;99.90
1830;DHT22;914;48.118;11.600;2023-05-10T01:03:23;16.30;99.90
1830;DHT22;914;48.118;11.600;2023-05-10T01:05:48;16.30;99.90
1830;DHT22;914;48.118;11.600;2023-05-10T01:08:15;16.40;99.90
1830;DHT22;914;48.118;11.600;2023-05-10T01:10:41;16.30;99.90
1830;DHT22;914;48.118;11.600;2023-05-10T01:13:07;16.20;99.90
1830;DHT22;914;48.118;11.600;2023-05-10T01:15:33;16.20;99.90
1830;DHT22;914;48.118;11.600;2023-05-10T01:17:59;16.10;99.90
1830;DHT22;914;48.118;11.600;2023-05-10T01:20:27;16.00;99.90
1830;DHT22;914;48.118;11.600;2023-05-10T01:34:07;16.00;99.90
1830;DHT22;914;48.118;11.600;2023-05-10T01:42:04;15.90;99.90
1830;DHT22;914;48.118;11.600;2023-05-10T01:44:37;15.90;99.90
1830;DHT22;914;48.118;11.600;2023-05-10T01:47:10;15.80;99.90
1830;DHT22;914;48.118;11.600;2023-05-10T01:49:43;15.90;99.90
1830;DHT22;914;48.118;11.600;2023-05-10T01:52:14;15.90;99.90
1830;DHT22;914;48.118;11.600;2023-05-10T01:55:16;16.00;99.90
1830;DHT22;914;48.118;11.600;2023-05-10T01:57:44;16.10;99.90
1830;DHT22;914;48.118;11.600;2023-05-10T02:00:12;16.00;99.90
1830;DHT22;914;48.118;11.600;2023-05-10T02:02:41;16.00;99.90
1830;DHT22;914;48.118;11.600;2023-05-10T02:05:12;16.30;99.90
1830;DHT22;914;48.118;11.600;2023-05-10T02:07:39;16.30;99.90
1830;DHT22;914;48.118;11.600;2023-05-10T02:10:06;16.20;99.90
1830;DHT22;914;48.118;11.600;2023-05-10T02:12:39;16.20;99.90
1830;DHT22;914;48.118;11.600;2023-05-10T02:15:07;16.20;99.90
1830;DHT22;914;48.118;11.600;2023-05-10T02:17:35;16.20;99.90
1830;DHT22;914;48.118;11.600;2023-05-10T02:20:02;16.20;99.90
1830;DHT22;914;48.118;11.600;2023-05-10T02:22:29;16.30;99.90
1830;DHT22;914;48.118;11.600;2023-05-10T02:24:55;16.10;99.90
1830;DHT22;914;48.118;11.600;2023-05-10T02:27:24;16.10;99.90
1830;DHT22;914;48.118;11.600;2023-05-10T02:29:50;16.10;99.90
1830;DHT22;914;48.118;11.600;2023-05-10T02:32:17;16.00;99.90
1830;DHT22;914;48.118;11.600;2023-05-10T02:34:44;15.90;99.90
1830;DHT22;914;48.118;11.600;2023-05-10T02:37:13;15.90;99.90
1830;DHT22;914;48.118;11.600;2023-05-10T02:39:40;15.90;99.90
1830;DHT22;914;48.118;11.600;2023-05-10T02:42:16;16.00;99.90
1830;DHT22;914;48.118;11.600;2023-05-10T02:44:42;15.80;99.90
1830;DHT22;914;48.118;11.600;2023-05-10T02:47:08;15.90;99.90
1830;DHT22;914;48.118;11.600;2023-05-10T02:49:34;16.00;99.90
1830;DHT22;914;48.118;11.600;2023-05-10T02:52:01;16.00;99.90
1830;DHT22;914;48.118;11.600;2023-05-10T02:54:33;16.00;99.90
1830;DHT22;914;48.118;11.600;2023-05-10T02:57:04;15.90;99.90
1830;DHT22;914;48.118;11.600;2023-05-10T02:59:31;16.00;99.90
1830;DHT22;914;48.118;11.600;2023-05-10T03:01:59;16.00;99.90
1830;DHT22;914;48.118;11.600;2023-05-10T03:04:25;15.90;99.90
1830;DHT22;914;48.118;11.600;2023-05-10T03:06:52;15.90;99.90
1830;DHT22;914;48.118;11.600;2023-05-10T03:09:18;15.90;99.90
1830;DHT22;914;48.118;11.600;2023-05-10T03:11:59;15.90;99.90
1830;DHT22;914;48.118;11.600;2023-05-10T03:17:25;15.90;99.90
1830;DHT22;914;48.118;11.600;2023-05-10T03:22:32;15.80;99.90
1830;DHT22;914;48.118;11.600;2023-05-10T03:25:00;15.80;99.90
1830;DHT22;914;48.118;11.600;2023-05-10T03:27:31;15.70;99.90
1830;DHT22;914;48.118;11.600;2023-05-10T03:29:57;15.80;99.90
1830;DHT22;914;48.118;11.600;2023-05-10T03:32:24;15.80;99.90
1830;DHT22;914;48.118;11.600;2023-05-10T03:34:49;15.80;99.90
1830;DHT22;914;48.118;11.600;2023-05-10T03:37:15;16.00;99.90
1830;DHT22;914;48.118;11.600;2023-05-10T03:39:41;15.90;99.90
1830;DHT22;914;48.118;11.600;2023-05-10T03:42:06;15.90;99.90
1830;DHT22;914;48.118;11.600;2023-05-10T03:44:32;16.10;99.90
1830;DHT22;914;48.118;11.600;2023-05-10T03:47:01;15.90;99.90
1830;DHT22;914;48.118;11.600;2023-05-10T03:49:26;15.80;99.90
1830;DHT22;914;48.118;11.600;2023-05-10T03:51:52;15.70;99.90
1830;DHT22;914;48.118;11.600;2023-05-10T03:54:17;15.70;99.90
1830;DHT22;914;48.118;11.600;2023-05-10T03:56:43;15.70;99.90
1830;DHT22;914;48.118;11.600;2023-05-10T03:59:09;15.70;99.90
1830;DHT22;914;48.118;11.600;2023-05-10T04:01:34;15.70;99.90
1830;DHT22;914;48.118;11.600;2023-05-10T04:04:00;15.60;99.90
1830;DHT22;914;48.118;11.600;2023-05-10T04:06:26;15.80;99.90
1830;DHT22;914;48.118;11.600;2023-05-10T04:08:51;15.90;99.90
1830;DHT22;914;48.118;11.600;2023-05-10T04:11:17;15.80;99.90
1830;DHT22;914;48.118;11.600;2023-05-10T04:13:43;15.90;99.90
1830;DHT22;914;48.118;11.600;2023-05-10T04:16:08;15.80;99.90
1830;DHT22;914;48.118;11.600;2023-05-10T04:18:34;15.70;99.90
1830;DHT22;914;48.118;11.600;2023-05-10T04:21:00;15.90;99.90
1830;DHT22;914;48.118;11.600;2023-05-10T04:23:27;15.80;99.90
1830;DHT22;914;48.118;11.600;2023-05-10T04:25:52;15.80;99.90
1830;DHT22;914;48.118;11.600;2023-05-10T04:28:18;15.70;99.90
1830;DHT22;914;48.118;11.600;2023-05-10T04:30:43;15.70;99.90
1830;DHT22;914;48.118;11.600;2023-05-10T04:33:09;15.70;99.90
1830;DHT22;914;48.118;11.600;2023-05-10T04:35:35;15.70;99.90
1830;DHT22;914;48.118;11.600;2023-05-10T04:38:00;15.80;99.90
1830;DHT22;914;48.118;11.600;2023-05-10T04:40:26;15.70;99.90
1830;DHT22;914;48.118;11.600;2023-05-10T04:42:52;15.80;99.90
1830;DHT22;914;48.118;11.600;2023-05-10T04:45:18;15.60;99.90
1830;DHT22;914;48.118;11.600;2023-05-10T04:47:43;15.60;99.90
1830;DHT22;914;48.118;11.600;2023-05-10T04:50:09;15.70;99.90
1830;DHT22;914;48.118;11.600;2023-05-10T04:52:35;15.80;99.90
1830;DHT22;914;48.118;11.600;2023-05-10T04:55:01;15.70;99.90
1830;DHT22;914;48.118;11.600;2023-05-10T04:57:26;15.80;99.90
1830;DHT22;914;48.118;11.600;2023-05-10T04:59:52;15.70;99.90
1830;DHT22;914;48.118;11.600;2023-05-10T05:02:18;15.40;99.90
1830;DHT22;914;48.118;11.600;2023-05-10T05:04:43;15.40;99.90
1830;DHT22;914;48.118;11.600;2023-05-10T05:07:09;15.40;99.90
1830;DHT22;914;48.118;11.600;2023-05-10T05:09:35;15.40;99.90
1830;DHT22;914;48.118;11.600;2023-05-10T05:12:00;15.30;99.90
1830;DHT22;914;48.118;11.600;2023-05-10T05:14:26;15.30;99.90
1830;DHT22;914;48.118;11.600;2023-05-10T05:16:52;15.20;99.90
1830;DHT22;914;48.118;11.600;2023-05-10T05:19:18;14.90;99.90
1830;DHT22;914;48.118;11.600;2023-05-10T05:21:43;14.80;99.90
1830;DHT22;914;48.118;11.600;2023-05-10T05:24:09;14.90;99.90
1830;DHT22;914;48.118;11.600;2023-05-10T05:26:36;14.90;99.90
1830;DHT22;914;48.118;11.600;2023-05-10T05:29:02;15.20;99.90
1830;DHT22;914;48.118;11.600;2023-05-10T05:31:28;14.80;99.90
1830;DHT22;914;48.118;11.600;2023-05-10T05:33:54;14.80;99.90
1830;DHT22;914;48.118;11.600;2023-05-10T05:36:21;15.00;99.90
1830;DHT22;914;48.118;11.600;2023-05-10T05:38:46;14.80;99.90
1830;DHT22;914;48.118;11.600;2023-05-10T05:41:12;14.90;99.90
1830;DHT22;914;48.118;11.600;2023-05-10T05:43:38;14.90;99.90
1830;DHT22;914;48.118;11.600;2023-05-10T05:46:03;15.00;99.90
1830;DHT22;914;48.118;11.600;2023-05-10T05:48:30;14.90;99.90
1830;DHT22;914;48.118;11.600;2023-05-10T05:50:56;14.60;99.90
1830;DHT22;914;48.118;11.600;2023-05-10T05:53:22;14.10;99.90
1830;DHT22;914;48.118;11.600;2023-05-10T05:55:52;13.90;99.90
1830;DHT22;914;48.118;11.600;2023-05-10T05:58:19;13.80;99.90
1830;DHT22;914;48.118;11.600;2023-05-10T06:00:45;13.70;99.90
1830;DHT22;914;48.118;11.600;2023-05-10T06:03:10;13.80;99.90
1830;DHT22;914;48.118;11.600;2023-05-10T06:05:39;13.80;99.90
1830;DHT22;914;48.118;11.600;2023-05-10T06:08:05;14.10;99.90
1830;DHT22;914;48.118;11.600;2023-05-10T06:10:30;14.20;99.90
1830;DHT22;914;48.118;11.600;2023-05-10T06:12:56;14.30;99.90
1830;DHT22;914;48.118;11.600;2023-05-10T06:15:22;14.40;99.90
1830;DHT22;914;48.118;11.600;2023-05-10T06:17:47;14.30;99.90
1830;DHT22;914;48.118;11.600;2023-05-10T06:20:15;14.20;99.90
1830;DHT22;914;48.118;11.600;2023-05-10T06:22:41;14.30;99.90
1830;DHT22;914;48.118;11.600;2023-05-10T06:25:07;14.50;99.90
1830;DHT22;914;48.118;11.600;2023-05-10T06:27:33;14.60;99.90
1830;DHT22;914;48.118;11.600;2023-05-10T06:29:59;14.70;99.90
1830;DHT22;914;48.118;11.600;2023-05-10T06:32:24;14.80;99.90
1830;DHT22;914;48.118;11.600;2023-05-10T06:34:50;14.70;99.90
1830;DHT22;914;48.118;11.600;2023-05-10T06:37:16;14.70;99.90
1830;DHT22;914;48.118;11.600;2023-05-10T06:39:42;14.70;99.90
1830;DHT22;914;48.118;11.600;2023-05-10T06:42:07;14.80;99.90
1830;DHT22;914;48.118;11.600;2023-05-10T06:44:33;14.60;99.90
1830;DHT22;914;48.118;11.600;2023-05-10T06:46:59;14.60;99.90
1830;DHT22;914;48.118;11.600;2023-05-10T06:49:24;14.80;99.90
1830;DHT22;914;48.118;11.600;2023-05-10T06:51:50;14.80;99.90
1830;DHT22;914;48.118;11.600;2023-05-10T06:54:16;15.20;99.90
1830;DHT22;914;48.118;11.600;2023-05-10T06:56:42;15.00;99.90
1830;DHT22;914;48.118;11.600;2023-05-10T06:59:07;15.00;99.90
1830;DHT22;914;48.118;11.600;2023-05-10T07:01:33;15.20;99.90
1830;DHT22;914;48.118;11.600;2023-05-10T07:03:59;15.40;99.90
1830;DHT22;914;48.118;11.600;2023-05-10T07:06:24;15.10;99.90
1830;DHT22;914;48.118;11.600;2023-05-10T07:08:50;15.20;99.90
1830;DHT22;914;48.118;11.600;2023-05-10T07:11:16;15.20;99.90
1830;DHT22;914;48.118;11.600;2023-05-10T07:13:41;15.30;99.90
1830;DHT22;914;48.118;11.600;2023-05-10T07:16:09;15.30;99.90
1830;DHT22;914;48.118;11.600;2023-05-10T07:18:36;15.20;99.90
1830;DHT22;914;48.118;11.600;2023-05-10T07:21:04;15.30;99.90
1830;DHT22;914;48.118;11.600;2023-05-10T07:23:30;15.40;99.90
1830;DHT22;914;48.118;11.600;2023-05-10T07:25:55;15.40;99.90
1830;DHT22;914;48.118;11.600;2023-05-10T07:28:23;15.60;99.90
1830;DHT22;914;48.118;11.600;2023-05-10T07:30:49;15.80;99.90
1830;DHT22;914;48.118;11.600;2023-05-10T07:33:15;16.00;99.90
1830;DHT22;914;48.118;11.600;2023-05-10T07:35:42;16.30;99.90
1830;DHT22;914;48.118;11.600;2023-05-10T07:38:08;16.40;99.90
1830;DHT22;914;48.118;11.600;2023-05-10T07:40:33;16.60;99.90
1830;DHT22;914;48.118;11.600;2023-05-10T07:42:59;16.60;99.90
1830;DHT22;914;48.118;11.600;2023-05-10T07:45:27;16.60;99.90
1830;DHT22;914;48.118;11.600;2023-05-10T07:47:52;16.40;99.90
1830;DHT22;914;48.118;11.600;2023-05-10T07:50:18;16.50;99.90
1830;DHT22;914;48.118;11.600;2023-05-10T07:52:44;16.70;99.90
1830;DHT22;914;48.118;11.600;2023-05-10T07:55:09;16.60;99.90
1830;DHT22;914;48.118;11.600;2023-05-10T07:57:35;16.40;99.90
1830;DHT22;914;48.118;11.600;2023-05-10T08:00:02;16.50;99.90
1830;DHT22;914;48.118;11.600;2023-05-10T08:02:28;16.50;99.90
1830;DHT22;914;48.118;11.600;2023-05-10T08:04:53;16.50;99.90
1830;DHT22;914;48.118;11.600;2023-05-10T08:07:19;16.70;99.90
1830;DHT22;914;48.118;11.600;2023-05-10T08:09:45;16.90;99.90
1830;DHT22;914;48.118;11.600;2023-05-10T08:12:11;17.00;99.90
1830;DHT22;914;48.118;11.600;2023-05-10T08:14:37;17.00;99.90
1830;DHT22;914;48.118;11.600;2023-05-10T08:17:03;17.00;99.90
1830;DHT22;914;48.118;11.600;2023-05-10T08:19:29;17.20;99.90
1830;DHT22;914;48.118;11.600;2023-05-10T08:21:55;17.60;99.90
1830;DHT22;914;48.118;11.600;2023-05-10T08:24:21;17.80;99.90
1830;DHT22;914;48.118;11.600;2023-05-10T08:26:47;17.30;99.90
1830;DHT22;914;48.118;11.600;2023-05-10T08:29:14;17.30;99.90
1830;DHT22;914;48.118;11.600;2023-05-10T08:31:39;17.50;99.90
1830;DHT22;914;48.118;11.600;2023-05-10T08:34:05;17.60;99.90
1830;DHT22;914;48.118;11.600;2023-05-10T08:36:31;17.50;99.90
1830;DHT22;914;48.118;11.600;2023-05-10T08:38:58;17.40;99.90
1830;DHT22;914;48.118;11.600;2023-05-10T08:41:24;17.40;99.90
1830;DHT22;914;48.118;11.600;2023-05-10T08:43:52;17.00;99.90
1830;DHT22;914;48.118;11.600;2023-05-10T08:46:19;16.90;99.90
1830;DHT22;914;48.118;11.600;2023-05-10T08:48:45;16.50;99.90
1830;DHT22;914;48.118;11.600;2023-05-10T08:51:18;16.50;99.90
1830;DHT22;914;48.118;11.600;2023-05-10T08:53:45;16.50;99.90
1830;DHT22;914;48.118;11.600;2023-05-10T08:56:11;16.60;99.90
1830;DHT22;914;48.118;11.600;2023-05-10T08:58:38;16.40;99.90
1830;DHT22;914;48.118;11.600;2023-05-10T09:01:08;16.60;99.90
1830;DHT22;914;48.118;11.600;2023-05-10T09:03:35;16.70;99.90
1830;DHT22;914;48.118;11.600;2023-05-10T09:06:03;16.80;99.90
1830;DHT22;914;48.118;11.600;2023-05-10T09:08:30;16.50;99.90
1830;DHT22;914;48.118;11.600;2023-05-10T09:10:56;16.50;99.90
1830;DHT22;914;48.118;11.600;2023-05-10T09:13:23;16.60;99.90
1830;DHT22;914;48.118;11.600;2023-05-10T09:15:50;16.70;99.90
1830;DHT22;914;48.118;11.600;2023-05-10T09:18:16;16.80;99.90
1830;DHT22;914;48.118;11.600;2023-05-10T09:20:42;17.00;99.90
1830;DHT22;914;48.118;11.600;2023-05-10T09:23:08;17.50;99.90
1830;DHT22;914;48.118;11.600;2023-05-10T09:25:34;17.50;99.90
1830;DHT22;914;48.118;11.600;2023-05-10T09:28:00;17.70;99.90
1830;DHT22;914;48.118;11.600;2023-05-10T09:30:30;17.80;99.90
1830;DHT22;914;48.118;11.600;2023-05-10T09:32:57;17.60;99.90
1830;DHT22;914;48.118;11.600;2023-05-10T09:35:27;17.50;99.90
1830;DHT22;914;48.118;11.600;2023-05-10T09:37:54;17.20;99.90
1830;DHT22;914;48.118;11.600;2023-05-10T09:40:23;17.20;99.90
1830;DHT22;914;48.118;11.600;2023-05-10T09:43:06;17.10;99.90
1830;DHT22;914;48.118;11.600;2023-05-10T09:45:34;17.10;99.90
1830;DHT22;914;48.118;11.600;2023-05-10T09:48:01;17.20;99.90
1830;DHT22;914;48.118;11.600;2023-05-10T09:50:28;17.50;99.90
1830;DHT22;914;48.118;11.600;2023-05-10T09:52:59;17.80;99.90
1830;DHT22;914;48.118;11.600;2023-05-10T09:55:37;18.10;99.90
1830;DHT22;914;48.118;11.600;2023-05-10T09:58:03;18.10;99.90
1830;DHT22;914;48.118;11.600;2023-05-10T10:00:35;18.40;99.90
1830;DHT22;914;48.118;11.600;2023-05-10T10:03:01;18.60;99.90
1830;DHT22;914;48.118;11.600;2023-05-10T10:05:33;18.70;99.90
1830;DHT22;914;48.118;11.600;2023-05-10T10:08:00;18.60;99.90
1830;DHT22;914;48.118;11.600;2023-05-10T10:10:27;18.50;99.90
1830;DHT22;914;48.118;11.600;2023-05-10T10:12:53;18.70;99.90
1830;DHT22;914;48.118;11.600;2023-05-10T10:15:23;18.70;99.90
1830;DHT22;914;48.118;11.600;2023-05-10T10:17:50;18.70;99.90
1830;DHT22;914;48.118;11.600;2023-05-10T10:20:17;18.70;99.90
1830;DHT22;914;48.118;11.600;2023-05-10T10:22:43;18.80;99.90
1830;DHT22;914;48.118;11.600;2023-05-10T10:25:11;18.60;99.90
1830;DHT22;914;48.118;11.600;2023-05-10T10:33:08;18.80;99.90
1830;DHT22;914;48.118;11.600;2023-05-10T10:35:36;18.80;99.90
1830;DHT22;914;48.118;11.600;2023-05-10T10:38:02;18.80;99.90
1830;DHT22;914;48.118;11.600;2023-05-10T10:40:29;19.10;99.90
1830;DHT22;914;48.118;11.600;2023-05-10T10:42:56;19.60;99.90
1830;DHT22;914;48.118;11.600;2023-05-10T10:45:23;19.70;99.90
1830;DHT22;914;48.118;11.600;2023-05-10T10:47:53;19.60;99.90
1830;DHT22;914;48.118;11.600;2023-05-10T10:50:18;19.30;99.90
1830;DHT22;914;48.118;11.600;2023-05-10T10:52:45;19.50;99.90
1830;DHT22;914;48.118;11.600;2023-05-10T10:55:18;19.90;99.90
1830;DHT22;914;48.118;11.600;2023-05-10T10:57:49;19.80;99.90
1830;DHT22;914;48.118;11.600;2023-05-10T11:00:24;19.20;99.90
1830;DHT22;914;48.118;11.600;2023-05-10T11:03:10;19.60;99.90
1830;DHT22;914;48.118;11.600;2023-05-10T11:10:39;19.40;99.90
1830;DHT22;914;48.118;11.600;2023-05-10T11:13:07;19.20;99.90
1830;DHT22;914;48.118;11.600;2023-05-10T11:15:35;18.70;99.90
1830;DHT22;914;48.118;11.600;2023-05-10T11:18:20;18.40;99.90
1830;DHT22;914;48.118;11.600;2023-05-10T11:21:08;18.30;99.90
1830;DHT22;914;48.118;11.600;2023-05-10T11:26:08;17.80;99.90
1830;DHT22;914;48.118;11.600;2023-05-10T11:28:44;17.30;99.90
1830;DHT22;914;48.118;11.600;2023-05-10T11:31:10;17.10;99.90
1830;DHT22;914;48.118;11.600;2023-05-10T11:33:45;17.00;99.90
1830;DHT22;914;48.118;11.600;2023-05-10T11:36:16;17.00;99.90
1830;DHT22;914;48.118;11.600;2023-05-10T11:38:42;17.00;99.90
1830;DHT22;914;48.118;11.600;2023-05-10T11:41:09;16.70;99.90
1830;DHT22;914;48.118;11.600;2023-05-10T11:43:35;16.70;99.90
1830;DHT22;914;48.118;11.600;2023-05-10T11:46:04;16.70;99.90
1830;DHT22;914;48.118;11.600;2023-05-10T11:48:31;16.50;99.90
1830;DHT22;914;48.118;11.600;2023-05-10T11:50:57;16.10;99.90
1830;DHT22;914;48.118;11.600;2023-05-10T11:53:26;15.80;99.90
1830;DHT22;914;48.118;11.600;2023-05-10T11:55:51;15.60;99.90
1830;DHT22;914;48.118;11.600;2023-05-10T11:58:18;15.60;99.90
1830;DHT22;914;48.118;11.600;2023-05-10T12:00:44;15.50;99.90
1830;DHT22;914;48.118;11.600;2023-05-10T12:03:11;15.40;99.90
1830;DHT22;914;48.118;11.600;2023-05-10T12:05:37;15.30;99.90
1830;DHT22;914;48.118;11.600;2023-05-10T12:08:14;15.20;99.90
1830;DHT22;914;48.118;11.600;2023-05-10T12:10:40;15.10;99.90
1830;DHT22;914;48.118;11.600;2023-05-10T12:13:11;15.10;99.90
1830;DHT22;914;48.118;11.600;2023-05-10T12:15:37;15.30;99.90
1830;DHT22;914;48.118;11.600;2023-05-10T12:18:03;15.20;99.90
1830;DHT22;914;48.118;11.600;2023-05-10T12:20:31;15.30;99.90
1830;DHT22;914;48.118;11.600;2023-05-10T12:22:58;15.30;99.90
1830;DHT22;914;48.118;11.600;2023-05-10T12:25:35;15.20;99.90
1830;DHT22;914;48.118;11.600;2023-05-10T12:28:07;15.20;99.90
1830;DHT22;914;48.118;11.600;2023-05-10T12:30:37;15.10;99.90
1830;DHT22;914;48.118;11.600;2023-05-10T12:33:11;15.10;99.90
1830;DHT22;914;48.118;11.600;2023-05-10T12:35:47;15.00;99.90
1830;DHT22;914;48.118;11.600;2023-05-10T12:38:32;15.10;99.90
1830;DHT22;914;48.118;11.600;2023-05-10T12:41:00;15.20;99.90
1830;DHT22;914;48.118;11.600;2023-05-10T12:43:26;15.20;99.90
1830;DHT22;914;48.118;11.600;2023-05-10T12:45:52;15.10;99.90
1830;DHT22;914;48.118;11.600;2023-05-10T12:48:19;15.20;99.90
1830;DHT22;914;48.118;11.600;2023-05-10T12:50:45;15.30;99.90
1830;DHT22;914;48.118;11.600;2023-05-10T12:53:11;15.40;99.90
1830;DHT22;914;48.118;11.600;2023-05-10T12:55:36;15.50;99.90
1830;DHT22;914;48.118;11.600;2023-05-10T12:58:02;15.50;99.90
1830;DHT22;914;48.118;11.600;2023-05-10T13:00:28;15.40;99.90
1830;DHT22;914;48.118;11.600;2023-05-10T13:02:54;15.50;99.90
1830;DHT22;914;48.118;11.600;2023-05-10T13:05:19;15.40;99.90
1830;DHT22;914;48.118;11.600;2023-05-10T13:07:45;15.40;99.90
1830;DHT22;914;48.118;11.600;2023-05-10T13:10:11;15.50;99.90
1830;DHT22;914;48.118;11.600;2023-05-10T13:12:36;15.30;99.90
1830;DHT22;914;48.118;11.600;2023-05-10T13:15:03;15.50;99.90
1830;DHT22;914;48.118;11.600;2023-05-10T13:17:29;15.60;99.90
1830;DHT22;914;48.118;11.600;2023-05-10T13:19:54;15.80;99.90
1830;DHT22;914;48.118;11.600;2023-05-10T13:22:20;15.80;99.90
1830;DHT22;914;48.118;11.600;2023-05-10T13:24:46;15.80;99.90
1830;DHT22;914;48.118;11.600;2023-05-10T13:27:11;15.80;99.90
1830;DHT22;914;48.118;11.600;2023-05-10T13:29:37;15.80;99.90
1830;DHT22;914;48.118;11.600;2023-05-10T13:32:02;16.00;99.90
1830;DHT22;914;48.118;11.600;2023-05-10T13:34:28;16.10;99.90
1830;DHT22;914;48.118;11.600;2023-05-10T13:36:54;16.00;99.90
1830;DHT22;914;48.118;11.600;2023-05-10T13:39:21;15.90;99.90
1830;DHT22;914;48.118;11.600;2023-05-10T13:41:46;16.00;99.90
1830;DHT22;914;48.118;11.600;2023-05-10T13:44:13;15.80;99.90
1830;DHT22;914;48.118;11.600;2023-05-10T13:46:42;15.80;99.90
1830;DHT22;914;48.118;11.600;2023-05-10T13:49:09;15.70;99.90
1830;DHT22;914;48.118;11.600;2023-05-10T13:51:35;15.60;99.90
1830;DHT22;914;48.118;11.600;2023-05-10T13:54:02;15.60;99.90
1830;DHT22;914;48.118;11.600;2023-05-10T13:56:27;15.60;99.90
1830;DHT22;914;48.118;11.600;2023-05-10T13:58:53;15.60;99.90
1830;DHT22;914;48.118;11.600;2023-05-10T14:01:19;15.50;99.90
1830;DHT22;914;48.118;11.600;2023-05-10T14:03:45;15.40;99.90
1830;DHT22;914;48.118;11.600;2023-05-10T14:06:10;15.30;99.90
1830;DHT22;914;48.118;11.600;2023-05-10T14:08:36;15.50;99.90
1830;DHT22;914;48.118;11.600;2023-05-10T14:11:02;15.50;99.90
1830;DHT22;914;48.118;11.600;2023-05-10T14:13:28;15.50;99.90
1830;DHT22;914;48.118;11.600;2023-05-10T14:15:54;15.50;99.90
1830;DHT22;914;48.118;11.600;2023-05-10T14:18:20;15.50;99.90
1830;DHT22;914;48.118;11.600;2023-05-10T14:20:46;15.50;99.90
1830;DHT22;914;48.118;11.600;2023-05-10T14:23:12;15.40;99.90
1830;DHT22;914;48.118;11.600;2023-05-10T14:25:41;15.30;99.90
1830;DHT22;914;48.118;11.600;2023-05-10T14:28:06;15.40;99.90
1830;DHT22;914;48.118;11.600;2023-05-10T14:30:32;15.50;99.90
1830;DHT22;914;48.118;11.600;2023-05-10T14:33:00;15.70;99.90
1830;DHT22;914;48.118;11.600;2023-05-10T14:35:27;15.70;99.90
1830;DHT22;914;48.118;11.600;2023-05-10T14:37:53;15.50;99.90
1830;DHT22;914;48.118;11.600;2023-05-10T14:40:19;15.60;99.90
1830;DHT22;914;48.118;11.600;2023-05-10T14:42:44;15.70;99.90
1830;DHT22;914;48.118;11.600;2023-05-10T14:45:10;15.70;99.90
1830;DHT22;914;48.118;11.600;2023-05-10T14:47:37;15.60;99.90
1830;DHT22;914;48.118;11.600;2023-05-10T14:50:03;15.60;99.90
1830;DHT22;914;48.118;11.600;2023-05-10T14:52:29;15.50;99.90
1830;DHT22;914;48.118;11.600;2023-05-10T14:54:55;15.30;99.90
1830;DHT22;914;48.118;11.600;2023-05-10T14:57:20;15.60;99.90
1830;DHT22;914;48.118;11.600;2023-05-10T14:59:46;15.60;99.90
1830;DHT22;914;48.118;11.600;2023-05-10T15:02:11;15.30;99.90
1830;DHT22;914;48.118;11.600;2023-05-10T15:04:38;15.50;99.90
1830;DHT22;914;48.118;11.600;2023-05-10T15:07:04;15.30;99.90
1830;DHT22;914;48.118;11.600;2023-05-10T15:09:31;15.10;99.90
1830;DHT22;914;48.118;11.600;2023-05-10T15:11:57;15.10;99.90
1830;DHT22;914;48.118;11.600;2023-05-10T15:14:23;14.90;99.90
1830;DHT22;914;48.118;11.600;2023-05-10T15:16:48;15.00;99.90
1830;DHT22;914;48.118;11.600;2023-05-10T15:19:14;14.80;99.90
1830;DHT22;914;48.118;11.600;2023-05-10T15:21:40;14.90;99.90
1830;DHT22;914;48.118;11.600;2023-05-10T15:24:08;14.90;99.90
1830;DHT22;914;48.118;11.600;2023-05-10T15:26:35;15.10;99.90
1830;DHT22;914;48.118;11.600;2023-05-10T15:29:00;15.20;99.90
1830;DHT22;914;48.118;11.600;2023-05-10T15:31:26;15.00;99.90
1830;DHT22;914;48.118;11.600;2023-05-10T15:33:57;15.00;99.90
1830;DHT22;914;48.118;11.600;2023-05-10T15:36:24;14.90;99.90
1830;DHT22;914;48.118;11.600;2023-05-10T15:38:50;14.80;99.90
1830;DHT22;914;48.118;11.600;2023-05-10T15:41:15;14.80;99.90
1830;DHT22;914;48.118;11.600;2023-05-10T15:43:41;15.00;99.90
1830;DHT22;914;48.118;11.600;2023-05-10T15:46:07;15.20;99.90
1830;DHT22;914;48.118;11.600;2023-05-10T15:48:32;15.10;99.90
1830;DHT22;914;48.118;11.600;2023-05-10T15:50:58;14.70;99.90
1830;DHT22;914;48.118;11.600;2023-05-10T15:53:24;14.70;99.90
1830;DHT22;914;48.118;11.600;2023-05-10T15:55:50;14.60;99.90
1830;DHT22;914;48.118;11.600;2023-05-10T15:58:16;14.60;99.90
1830;DHT22;914;48.118;11.600;2023-05-10T16:00:41;14.70;99.90
1830;DHT22;914;48.118;11.600;2023-05-10T16:03:07;14.60;99.90
1830;DHT22;914;48.118;11.600;2023-05-10T16:05:32;14.40;99.90
1830;DHT22;914;48.118;11.600;2023-05-10T16:08:01;14.60;99.90
1830;DHT22;914;48.118;11.600;2023-05-10T16:10:27;14.60;99.90
1830;DHT22;914;48.118;11.600;2023-05-10T16:12:55;14.50;99.90
1830;DHT22;914;48.118;11.600;2023-05-10T16:15:21;14.50;99.90
1830;DHT22;914;48.118;11.600;2023-05-10T16:17:47;14.50;99.90
1830;DHT22;914;48.118;11.600;2023-05-10T16:20:13;14.70;99.90
1830;DHT22;914;48.118;11.600;2023-05-10T16:22:38;14.60;99.90
1830;DHT22;914;48.118;11.600;2023-05-10T16:25:04;14.40;99.90
1830;DHT22;914;48.118;11.600;2023-05-10T16:27:30;14.50;99.90
1830;DHT22;914;48.118;11.600;2023-05-10T16:29:58;14.40;99.90
1830;DHT22;914;48.118;11.600;2023-05-10T16:32:24;14.50;99.90
1830;DHT22;914;48.118;11.600;2023-05-10T16:34:50;14.40;99.90